Aeroporto :
LOGIN :

Iscrizione | Disclaimer

   EN    FR    IT 

 










Sommario :    VFR   VFR Marginale   IFR   IFR Intensivo   IFR Molto Intensivo
Visibilità : 
Base nubi : 
>= 8 km
>= 3000ft
5 / 8 km
1000 / 3000 ft
1500m / 5 km
500 / 1000 ft
800 / 1500m
200 / 500 ft
< 800m
< 200 ft
Simboli :   Temporali  Nebbia  Neve Forte  Precipitazioni Forti  Vento > 20 kt
SIGMETs :   Varie  Temporali  Ghiacco  Turbolenza  Onda orograficha  Ceneri Vulcaniche







- Altitudine del aeroporto : 1300 ft
- Codice IATA : LIG
- Carte del aeroporto


LFBL - Limoges

ULTIMO METAR :
  • 242330Z AUTO 30005KT CAVOK 13/11 Q1018 NOSIG

METARs OBSOLETI :
  • 242300Z AUTO 29004KT 9999 SCT041 SCT092 14/12 Q1018 TEMPO 0800 FG VV///
  • 242230Z AUTO VRB02KT 9999 FEW039 OVC092 14/11 Q1018 TEMPO 0800 FG VV///
  • 242200Z AUTO 32003KT CAVOK 14/12 Q1018 BECMG BKN007
  • 242130Z AUTO 02002KT CAVOK 15/12 Q1018 BECMG 30010KT BKN007
  • 242100Z AUTO VRB03KT 9999 FEW023/// SCT041/// BKN060/// ///TCU 15/12 Q1018 BECMG BKN007

TAF TAF LFBL
Valido dal 25 a 00 ore il 26 a 00 ore UTC


242300Z 2500/2524 34006KT 8000 NSC
BECMG 2503/2505 BKN004
PROB40 2502/2505 4000 BR OVC002
BECMG 2505/2507 BKN007
BECMG 2507/2509 SCT016TCU SCT040
PROB40 2518/2522 SCT040
ATIS : +33 5 55 48 40 37
Nessun NOTAM noto per questo aeroporto.



MetMap, La meteo Aeronautica in un colpo d'occhio ! - Copyright ORBIFLY Dicembre 2007 - Disclaimer

ORBIFLY MET'MAP TEAM :

Programmazione e sviluppo : Alexandra Zaïnal
Concezione e sviluppo : Baudouin d'Aumeries
Co-Programmazione e sviluppo : Marc-Olivier Méhu
Supporto tecnico e logistico : Manuel Goepfert
Aiuto per la traduzione : Arnaldo La Scala

Contatto : metmap@orbifly.com




FONTI E CREDITI :

   NOAA